sensor_id;sensor_type;location;lat;lon;timestamp;pressure;altitude;pressure_sealevel;temperature;humidity
29045;BME280;16133;49.486;12.176;2023-03-14T00:00:09;95414.28;;;7.95;100.00
29045;BME280;16133;49.486;12.176;2023-03-14T00:02:36;95427.94;;;7.92;100.00
29045;BME280;16133;49.486;12.176;2023-03-14T00:05:01;95436.69;;;7.86;100.00
29045;BME280;16133;49.486;12.176;2023-03-14T00:07:32;95390.81;;;7.81;100.00
29045;BME280;16133;49.486;12.176;2023-03-14T00:09:59;95394.91;;;7.77;100.00
29045;BME280;16133;49.486;12.176;2023-03-14T00:12:24;95385.59;;;7.74;100.00
29045;BME280;16133;49.486;12.176;2023-03-14T00:14:49;95405.91;;;7.74;100.00
29045;BME280;16133;49.486;12.176;2023-03-14T00:17:15;95403.03;;;7.75;100.00
29045;BME280;16133;49.486;12.176;2023-03-14T00:19:40;95409.34;;;7.74;100.00
29045;BME280;16133;49.486;12.176;2023-03-14T00:22:06;95411.97;;;7.74;100.00
29045;BME280;16133;49.486;12.176;2023-03-14T00:24:31;95418.72;;;7.70;100.00
29045;BME280;16133;49.486;12.176;2023-03-14T00:26:56;95415.44;;;7.68;100.00
29045;BME280;16133;49.486;12.176;2023-03-14T00:29:22;95408.78;;;7.65;100.00
29045;BME280;16133;49.486;12.176;2023-03-14T00:31:47;95412.41;;;7.64;100.00
29045;BME280;16133;49.486;12.176;2023-03-14T00:34:12;95406.56;;;7.62;100.00
29045;BME280;16133;49.486;12.176;2023-03-14T00:36:38;95408.38;;;7.62;100.00
29045;BME280;16133;49.486;12.176;2023-03-14T00:39:03;95403.09;;;7.62;100.00
29045;BME280;16133;49.486;12.176;2023-03-14T00:41:28;95406.31;;;7.64;100.00
29045;BME280;16133;49.486;12.176;2023-03-14T00:43:54;95405.13;;;7.66;100.00
29045;BME280;16133;49.486;12.176;2023-03-14T00:46:19;95426.81;;;7.68;100.00
29045;BME280;16133;49.486;12.176;2023-03-14T00:48:45;95430.47;;;7.67;100.00
29045;BME280;16133;49.486;12.176;2023-03-14T00:51:11;95435.16;;;7.65;100.00
29045;BME280;16133;49.486;12.176;2023-03-14T00:53:39;95435.56;;;7.69;100.00
29045;BME280;16133;49.486;12.176;2023-03-14T00:56:07;95439.16;;;7.75;100.00
29045;BME280;16133;49.486;12.176;2023-03-14T00:58:32;95447.47;;;7.78;100.00
29045;BME280;16133;49.486;12.176;2023-03-14T01:00:58;95448.09;;;7.80;100.00
29045;BME280;16133;49.486;12.176;2023-03-14T01:03:23;95453.34;;;7.87;100.00
29045;BME280;16133;49.486;12.176;2023-03-14T01:05:49;95454.91;;;7.94;100.00
29045;BME280;16133;49.486;12.176;2023-03-14T01:08:15;95479.88;;;7.98;100.00
29045;BME280;16133;49.486;12.176;2023-03-14T01:10:41;95495.16;;;7.96;100.00
29045;BME280;16133;49.486;12.176;2023-03-14T01:13:07;95496.53;;;7.99;100.00
29045;BME280;16133;49.486;12.176;2023-03-14T01:15:33;95505.88;;;8.01;100.00
29045;BME280;16133;49.486;12.176;2023-03-14T01:17:59;95508.91;;;8.05;100.00
29045;BME280;16133;49.486;12.176;2023-03-14T01:20:24;95505.63;;;8.09;100.00
29045;BME280;16133;49.486;12.176;2023-03-14T01:22:50;95493.44;;;8.15;100.00
29045;BME280;16133;49.486;12.176;2023-03-14T01:25:16;95488.56;;;8.12;100.00
29045;BME280;16133;49.486;12.176;2023-03-14T01:27:42;95481.22;;;8.14;100.00
29045;BME280;16133;49.486;12.176;2023-03-14T01:30:09;95475.56;;;8.10;100.00
29045;BME280;16133;49.486;12.176;2023-03-14T01:32:36;95464.63;;;8.07;100.00
29045;BME280;16133;49.486;12.176;2023-03-14T01:35:02;95464.19;;;8.10;100.00
29045;BME280;16133;49.486;12.176;2023-03-14T01:37:28;95451.06;;;7.97;100.00
29045;BME280;16133;49.486;12.176;2023-03-14T01:39:53;95465.84;;;8.04;100.00
29045;BME280;16133;49.486;12.176;2023-03-14T01:42:18;95457.56;;;8.01;100.00
29045;BME280;16133;49.486;12.176;2023-03-14T01:47:20;95446.63;;;7.91;100.00
29045;BME280;16133;49.486;12.176;2023-03-14T01:50:09;95435.28;;;7.84;100.00
29045;BME280;16133;49.486;12.176;2023-03-14T01:52:40;95423.72;;;7.78;100.00
29045;BME280;16133;49.486;12.176;2023-03-14T01:55:17;95416.41;;;7.80;100.00
29045;BME280;16133;49.486;12.176;2023-03-14T01:57:49;95424.13;;;7.75;100.00
29045;BME280;16133;49.486;12.176;2023-03-14T02:00:19;95421.72;;;7.74;100.00
29045;BME280;16133;49.486;12.176;2023-03-14T02:02:51;95418.72;;;7.70;100.00
29045;BME280;16133;49.486;12.176;2023-03-14T02:05:19;95408.53;;;7.74;100.00
29045;BME280;16133;49.486;12.176;2023-03-14T02:07:50;95389.25;;;7.73;100.00
29045;BME280;16133;49.486;12.176;2023-03-14T02:10:17;95371.97;;;7.70;100.00
29045;BME280;16133;49.486;12.176;2023-03-14T02:12:48;95358.38;;;7.74;100.00
29045;BME280;16133;49.486;12.176;2023-03-14T02:15:14;95367.69;;;7.76;100.00
29045;BME280;16133;49.486;12.176;2023-03-14T02:17:41;95353.47;;;7.77;100.00
29045;BME280;16133;49.486;12.176;2023-03-14T02:20:31;95350.84;;;7.77;100.00
29045;BME280;16133;49.486;12.176;2023-03-14T02:22:53;95335.00;;;7.77;100.00
29045;BME280;16133;49.486;12.176;2023-03-14T02:28:14;95357.56;;;7.73;100.00
29045;BME280;16133;49.486;12.176;2023-03-14T02:30:40;95331.16;;;7.73;100.00
29045;BME280;16133;49.486;12.176;2023-03-14T02:33:24;95378.28;;;7.69;100.00
29045;BME280;16133;49.486;12.176;2023-03-14T02:35:56;95404.31;;;7.66;100.00
29045;BME280;16133;49.486;12.176;2023-03-14T02:41:00;95403.25;;;7.67;100.00
29045;BME280;16133;49.486;12.176;2023-03-14T02:43:25;95405.50;;;7.70;100.00
29045;BME280;16133;49.486;12.176;2023-03-14T02:45:52;95409.53;;;7.73;100.00
29045;BME280;16133;49.486;12.176;2023-03-14T02:48:24;95402.59;;;7.78;100.00
29045;BME280;16133;49.486;12.176;2023-03-14T02:50:53;95406.28;;;7.77;100.00
29045;BME280;16133;49.486;12.176;2023-03-14T02:53:24;95404.84;;;7.75;100.00
29045;BME280;16133;49.486;12.176;2023-03-14T02:55:49;95393.09;;;7.70;100.00
29045;BME280;16133;49.486;12.176;2023-03-14T02:58:15;95391.69;;;7.68;100.00
29045;BME280;16133;49.486;12.176;2023-03-14T03:00:41;95391.72;;;7.61;100.00
29045;BME280;16133;49.486;12.176;2023-03-14T03:03:07;95391.78;;;7.55;100.00
29045;BME280;16133;49.486;12.176;2023-03-14T03:05:33;95408.81;;;7.52;100.00
29045;BME280;16133;49.486;12.176;2023-03-14T03:07:58;95405.97;;;7.54;100.00
29045;BME280;16133;49.486;12.176;2023-03-14T03:10:24;95388.50;;;7.53;100.00
29045;BME280;16133;49.486;12.176;2023-03-14T03:12:50;95388.50;;;7.53;100.00
29045;BME280;16133;49.486;12.176;2023-03-14T03:15:16;95374.50;;;7.52;100.00
29045;BME280;16133;49.486;12.176;2023-03-14T03:17:41;95368.84;;;7.49;100.00
29045;BME280;16133;49.486;12.176;2023-03-14T03:20:08;95382.25;;;7.47;100.00
29045;BME280;16133;49.486;12.176;2023-03-14T03:22:35;95375.97;;;7.42;100.00
29045;BME280;16133;49.486;12.176;2023-03-14T03:25:01;95378.44;;;7.37;100.00
29045;BME280;16133;49.486;12.176;2023-03-14T03:27:29;95377.66;;;7.30;100.00
29045;BME280;16133;49.486;12.176;2023-03-14T03:29:55;95381.72;;;7.26;100.00
29045;BME280;16133;49.486;12.176;2023-03-14T03:32:21;95388.44;;;7.21;100.00
29045;BME280;16133;49.486;12.176;2023-03-14T03:34:46;95388.47;;;7.15;100.00
29045;BME280;16133;49.486;12.176;2023-03-14T03:37:11;95389.84;;;7.17;100.00
29045;BME280;16133;49.486;12.176;2023-03-14T03:39:37;95386.63;;;7.15;100.00
29045;BME280;16133;49.486;12.176;2023-03-14T03:42:02;95388.66;;;7.13;100.00
29045;BME280;16133;49.486;12.176;2023-03-14T03:44:27;95386.25;;;7.12;100.00
29045;BME280;16133;49.486;12.176;2023-03-14T03:46:53;95377.09;;;7.14;100.00
29045;BME280;16133;49.486;12.176;2023-03-14T03:49:18;95374.03;;;7.17;100.00
29045;BME280;16133;49.486;12.176;2023-03-14T03:51:43;95367.94;;;7.17;100.00
29045;BME280;16133;49.486;12.176;2023-03-14T03:54:09;95367.16;;;7.16;100.00
29045;BME280;16133;49.486;12.176;2023-03-14T03:56:34;95367.16;;;7.16;100.00
29045;BME280;16133;49.486;12.176;2023-03-14T03:59:00;95363.72;;;7.16;100.00
29045;BME280;16133;49.486;12.176;2023-03-14T04:01:25;95352.97;;;7.11;100.00
29045;BME280;16133;49.486;12.176;2023-03-14T04:03:50;95364.72;;;7.15;100.00
29045;BME280;16133;49.486;12.176;2023-03-14T04:06:16;95356.19;;;7.13;100.00
29045;BME280;16133;49.486;12.176;2023-03-14T04:08:41;95349.31;;;7.12;100.00
29045;BME280;16133;49.486;12.176;2023-03-14T04:11:07;95348.31;;;7.06;100.00
29045;BME280;16133;49.486;12.176;2023-03-14T04:13:32;95356.66;;;7.03;100.00
29045;BME280;16133;49.486;12.176;2023-03-14T04:15:58;95347.72;;;6.98;100.00
29045;BME280;16133;49.486;12.176;2023-03-14T04:18:23;95354.44;;;6.94;100.00
29045;BME280;16133;49.486;12.176;2023-03-14T04:20:57;95353.44;;;6.88;100.00
29045;BME280;16133;49.486;12.176;2023-03-14T04:23:23;95336.41;;;6.84;100.00
29045;BME280;16133;49.486;12.176;2023-03-14T04:25:50;95331.34;;;6.89;100.00
29045;BME280;16133;49.486;12.176;2023-03-14T04:28:16;95340.47;;;6.87;100.00
29045;BME280;16133;49.486;12.176;2023-03-14T04:30:41;95334.59;;;6.85;100.00
29045;BME280;16133;49.486;12.176;2023-03-14T04:33:07;95329.94;;;6.80;100.00
29045;BME280;16133;49.486;12.176;2023-03-14T04:35:33;95330.38;;;6.77;100.00
29045;BME280;16133;49.486;12.176;2023-03-14T04:37:58;95326.72;;;6.71;100.00
29045;BME280;16133;49.486;12.176;2023-03-14T04:40:24;95340.50;;;6.67;100.00
29045;BME280;16133;49.486;12.176;2023-03-14T04:42:50;95329.16;;;6.60;100.00
29045;BME280;16133;49.486;12.176;2023-03-14T04:45:15;95345.59;;;6.62;100.00
29045;BME280;16133;49.486;12.176;2023-03-14T04:47:41;95325.94;;;6.58;100.00
29045;BME280;16133;49.486;12.176;2023-03-14T04:50:06;95319.03;;;6.57;100.00
29045;BME280;16133;49.486;12.176;2023-03-14T04:52:32;95315.00;;;6.54;100.00
29045;BME280;16133;49.486;12.176;2023-03-14T04:54:57;95318.47;;;6.55;100.00
29045;BME280;16133;49.486;12.176;2023-03-14T04:57:22;95315.63;;;6.50;100.00
29045;BME280;16133;49.486;12.176;2023-03-14T04:59:48;95317.84;;;6.53;100.00
29045;BME280;16133;49.486;12.176;2023-03-14T05:02:13;95313.19;;;6.55;100.00
29045;BME280;16133;49.486;12.176;2023-03-14T05:04:39;95310.16;;;6.51;100.00
29045;BME280;16133;49.486;12.176;2023-03-14T05:07:04;95305.47;;;6.53;100.00
29045;BME280;16133;49.486;12.176;2023-03-14T05:09:29;95304.47;;;6.48;100.00
29045;BME280;16133;49.486;12.176;2023-03-14T05:11:55;95303.88;;;6.46;100.00
29045;BME280;16133;49.486;12.176;2023-03-14T05:14:20;95306.50;;;6.46;100.00
29045;BME280;16133;49.486;12.176;2023-03-14T05:16:45;95305.91;;;6.44;100.00
29045;BME280;16133;49.486;12.176;2023-03-14T05:19:11;95316.66;;;6.42;100.00
29045;BME280;16133;49.486;12.176;2023-03-14T05:21:37;95327.00;;;6.44;100.00
29045;BME280;16133;49.486;12.176;2023-03-14T05:24:02;95313.41;;;6.47;100.00
29045;BME280;16133;49.486;12.176;2023-03-14T05:26:28;95317.03;;;6.46;100.00
29045;BME280;16133;49.486;12.176;2023-03-14T05:28:54;95322.31;;;6.46;100.00
29045;BME280;16133;49.486;12.176;2023-03-14T05:31:19;95308.53;;;6.44;100.00
29045;BME280;16133;49.486;12.176;2023-03-14T05:33:44;95307.72;;;6.43;100.00
29045;BME280;16133;49.486;12.176;2023-03-14T05:36:10;95301.03;;;6.41;100.00
29045;BME280;16133;49.486;12.176;2023-03-14T05:38:35;95299.84;;;6.43;100.00
29045;BME280;16133;49.486;12.176;2023-03-14T05:41:00;95300.41;;;6.45;100.00
29045;BME280;16133;49.486;12.176;2023-03-14T05:43:26;95289.47;;;6.48;100.00
29045;BME280;16133;49.486;12.176;2023-03-14T05:45:51;95278.34;;;6.46;100.00
29045;BME280;16133;49.486;12.176;2023-03-14T05:48:17;95281.16;;;6.45;100.00
29045;BME280;16133;49.486;12.176;2023-03-14T05:50:43;95275.47;;;6.48;100.00
29045;BME280;16133;49.486;12.176;2023-03-14T05:53:09;95269.22;;;6.49;100.00
29045;BME280;16133;49.486;12.176;2023-03-14T05:55:34;95266.56;;;6.49;100.00
29045;BME280;16133;49.486;12.176;2023-03-14T05:57:59;95265.97;;;6.47;100.00
29045;BME280;16133;49.486;12.176;2023-03-14T06:00:25;95248.13;;;6.49;100.00
29045;BME280;16133;49.486;12.176;2023-03-14T06:02:50;95246.13;;;6.51;100.00
29045;BME280;16133;49.486;12.176;2023-03-14T06:05:16;95242.44;;;6.52;100.00
29045;BME280;16133;49.486;12.176;2023-03-14T06:07:41;95238.38;;;6.56;100.00
29045;BME280;16133;49.486;12.176;2023-03-14T06:10:07;95244.47;;;6.56;100.00
29045;BME280;16133;49.486;12.176;2023-03-14T06:12:32;95241.22;;;6.61;100.00
29045;BME280;16133;49.486;12.176;2023-03-14T06:14:57;95251.31;;;6.64;100.00
29045;BME280;16133;49.486;12.176;2023-03-14T06:17:23;95260.84;;;6.65;100.00
29045;BME280;16133;49.486;12.176;2023-03-14T06:19:48;95259.44;;;6.69;100.00
29045;BME280;16133;49.486;12.176;2023-03-14T06:22:14;95256.19;;;6.73;100.00
29045;BME280;16133;49.486;12.176;2023-03-14T06:24:39;95256.16;;;6.80;100.00
29045;BME280;16133;49.486;12.176;2023-03-14T06:27:05;95256.34;;;6.85;100.00
29045;BME280;16133;49.486;12.176;2023-03-14T06:29:30;95244.34;;;6.89;100.00
29045;BME280;16133;49.486;12.176;2023-03-14T06:31:56;95231.38;;;6.88;100.00
29045;BME280;16133;49.486;12.176;2023-03-14T06:34:21;95237.81;;;6.98;100.00
29045;BME280;16133;49.486;12.176;2023-03-14T06:36:47;95233.91;;;7.07;100.00
29045;BME280;16133;49.486;12.176;2023-03-14T06:39:12;95239.00;;;7.09;100.00
29045;BME280;16133;49.486;12.176;2023-03-14T06:41:38;95231.47;;;7.12;100.00
29045;BME280;16133;49.486;12.176;2023-03-14T06:44:03;95230.59;;;7.18;100.00
29045;BME280;16133;49.486;12.176;2023-03-14T06:46:29;95226.72;;;7.28;100.00
29045;BME280;16133;49.486;12.176;2023-03-14T06:48:54;95219.31;;;7.36;100.00
29045;BME280;16133;49.486;12.176;2023-03-14T06:51:20;95218.25;;;7.44;100.00
29045;BME280;16133;49.486;12.176;2023-03-14T06:53:45;95222.28;;;7.53;100.00
29045;BME280;16133;49.486;12.176;2023-03-14T06:56:11;95214.28;;;7.59;100.00
29045;BME280;16133;49.486;12.176;2023-03-14T06:58:36;95231.13;;;7.65;100.00
29045;BME280;16133;49.486;12.176;2023-03-14T07:01:02;95225.97;;;7.77;100.00
29045;BME280;16133;49.486;12.176;2023-03-14T07:03:27;95228.34;;;7.85;100.00
29045;BME280;16133;49.486;12.176;2023-03-14T07:05:53;95234.16;;;7.93;100.00
29045;BME280;16133;49.486;12.176;2023-03-14T07:08:18;95229.81;;;7.99;100.00
29045;BME280;16133;49.486;12.176;2023-03-14T07:10:44;95228.16;;;8.04;100.00
29045;BME280;16133;49.486;12.176;2023-03-14T07:13:09;95229.94;;;8.10;100.00
29045;BME280;16133;49.486;12.176;2023-03-14T07:15:34;95225.19;;;8.19;100.00
29045;BME280;16133;49.486;12.176;2023-03-14T07:18:00;95238.91;;;8.28;100.00
29045;BME280;16133;49.486;12.176;2023-03-14T07:20:25;95242.47;;;8.40;100.00
29045;BME280;16133;49.486;12.176;2023-03-14T07:22:50;95235.88;;;8.49;100.00
29045;BME280;16133;49.486;12.176;2023-03-14T07:25:16;95264.66;;;8.57;100.00
29045;BME280;16133;49.486;12.176;2023-03-14T07:27:46;95278.44;;;8.59;100.00
29045;BME280;16133;49.486;12.176;2023-03-14T07:30:13;95296.75;;;8.60;100.00
29045;BME280;16133;49.486;12.176;2023-03-14T07:32:38;95299.13;;;8.69;100.00
29045;BME280;16133;49.486;12.176;2023-03-14T07:35:04;95303.16;;;8.71;100.00
29045;BME280;16133;49.486;12.176;2023-03-14T07:37:29;95325.72;;;8.74;100.00
29045;BME280;16133;49.486;12.176;2023-03-14T07:39:55;95333.66;;;8.74;100.00
29045;BME280;16133;49.486;12.176;2023-03-14T07:42:20;95355.97;;;8.78;100.00
29045;BME280;16133;49.486;12.176;2023-03-14T07:44:46;95361.69;;;8.75;100.00
29045;BME280;16133;49.486;12.176;2023-03-14T07:47:11;95368.59;;;8.76;100.00
29045;BME280;16133;49.486;12.176;2023-03-14T07:49:37;95373.81;;;8.82;100.00
29045;BME280;16133;49.486;12.176;2023-03-14T07:52:02;95382.28;;;8.91;100.00
29045;BME280;16133;49.486;12.176;2023-03-14T07:54:27;95389.72;;;9.00;100.00
29045;BME280;16133;49.486;12.176;2023-03-14T07:56:53;95407.50;;;9.11;100.00
29045;BME280;16133;49.486;12.176;2023-03-14T07:59:18;95416.63;;;9.16;100.00
29045;BME280;16133;49.486;12.176;2023-03-14T08:01:44;95430.59;;;9.23;100.00
29045;BME280;16133;49.486;12.176;2023-03-14T08:04:09;95447.06;;;9.25;100.00
29045;BME280;16133;49.486;12.176;2023-03-14T08:06:36;95464.94;;;9.29;100.00
29045;BME280;16133;49.486;12.176;2023-03-14T08:09:02;95482.19;;;9.32;100.00
29045;BME280;16133;49.486;12.176;2023-03-14T08:11:27;95500.31;;;9.35;100.00
29045;BME280;16133;49.486;12.176;2023-03-14T08:13:53;95513.25;;;9.43;100.00
29045;BME280;16133;49.486;12.176;2023-03-14T08:16:19;95519.88;;;9.52;100.00
29045;BME280;16133;49.486;12.176;2023-03-14T08:18:45;95519.16;;;9.63;100.00
29045;BME280;16133;49.486;12.176;2023-03-14T08:21:13;95524.75;;;9.73;100.00
29045;BME280;16133;49.486;12.176;2023-03-14T08:23:39;95535.50;;;9.78;100.00
29045;BME280;16133;49.486;12.176;2023-03-14T08:26:04;95535.03;;;9.81;100.00
29045;BME280;16133;49.486;12.176;2023-03-14T08:28:30;95531.53;;;9.87;100.00
29045;BME280;16133;49.486;12.176;2023-03-14T08:30:57;95529.47;;;9.89;100.00
29045;BME280;16133;49.486;12.176;2023-03-14T08:33:24;95533.00;;;9.83;100.00
29045;BME280;16133;49.486;12.176;2023-03-14T08:35:52;95521.38;;;9.84;100.00
29045;BME280;16133;49.486;12.176;2023-03-14T08:38:19;95529.47;;;9.89;100.00
29045;BME280;16133;49.486;12.176;2023-03-14T08:40:44;95537.13;;;9.97;100.00
29045;BME280;16133;49.486;12.176;2023-03-14T08:43:09;95532.19;;;10.01;100.00
29045;BME280;16133;49.486;12.176;2023-03-14T08:45:35;95524.59;;;10.04;100.00
29045;BME280;16133;49.486;12.176;2023-03-14T08:48:00;95523.56;;;10.05;100.00
29045;BME280;16133;49.486;12.176;2023-03-14T08:50:26;95527.41;;;10.09;100.00
29045;BME280;16133;49.486;12.176;2023-03-14T08:52:51;95526.72;;;10.14;100.00
29045;BME280;16133;49.486;12.176;2023-03-14T08:55:17;95531.84;;;10.16;100.00
29045;BME280;16133;49.486;12.176;2023-03-14T08:57:43;95527.03;;;10.24;100.00
29045;BME280;16133;49.486;12.176;2023-03-14T09:00:08;95522.38;;;10.38;100.00
29045;BME280;16133;49.486;12.176;2023-03-14T09:02:40;95523.81;;;10.52;100.00
29045;BME280;16133;49.486;12.176;2023-03-14T09:05:06;95533.34;;;10.71;100.00
29045;BME280;16133;49.486;12.176;2023-03-14T09:07:32;95532.09;;;10.85;100.00
29045;BME280;16133;49.486;12.176;2023-03-14T09:09:57;95536.66;;;11.08;100.00
29045;BME280;16133;49.486;12.176;2023-03-14T09:12:22;95532.44;;;11.30;100.00
29045;BME280;16133;49.486;12.176;2023-03-14T09:14:48;95530.91;;;11.46;100.00
29045;BME280;16133;49.486;12.176;2023-03-14T09:17:13;95535.53;;;11.62;100.00
29045;BME280;16133;49.486;12.176;2023-03-14T09:19:38;95535.56;;;11.74;100.00
29045;BME280;16133;49.486;12.176;2023-03-14T09:22:05;95527.22;;;11.93;100.00
29045;BME280;16133;49.486;12.176;2023-03-14T09:24:33;95532.66;;;12.10;100.00
29045;BME280;16133;49.486;12.176;2023-03-14T09:27:00;95531.47;;;12.18;100.00
29045;BME280;16133;49.486;12.176;2023-03-14T09:29:25;95534.81;;;12.25;100.00
29045;BME280;16133;49.486;12.176;2023-03-14T09:31:51;95536.13;;;12.39;100.00
29045;BME280;16133;49.486;12.176;2023-03-14T09:34:17;95540.38;;;12.52;100.00
29045;BME280;16133;49.486;12.176;2023-03-14T09:36:42;95538.97;;;12.61;100.00
29045;BME280;16133;49.486;12.176;2023-03-14T09:39:09;95550.13;;;12.74;100.00
29045;BME280;16133;49.486;12.176;2023-03-14T09:41:37;95545.78;;;12.85;100.00
29045;BME280;16133;49.486;12.176;2023-03-14T09:44:09;95535.41;;;13.00;100.00
29045;BME280;16133;49.486;12.176;2023-03-14T09:46:38;95537.94;;;13.07;100.00
29045;BME280;16133;49.486;12.176;2023-03-14T09:49:20;95534.47;;;13.23;97.88
29045;BME280;16133;49.486;12.176;2023-03-14T09:51:48;95540.88;;;13.22;99.80
29045;BME280;16133;49.486;12.176;2023-03-14T09:56:52;95532.56;;;13.35;94.62
29045;BME280;16133;49.486;12.176;2023-03-14T09:59:18;95530.63;;;13.47;93.89
29045;BME280;16133;49.486;12.176;2023-03-14T10:01:43;95536.03;;;13.52;93.26
29045;BME280;16133;49.486;12.176;2023-03-14T10:04:17;95526.16;;;13.69;89.61
29045;BME280;16133;49.486;12.176;2023-03-14T10:06:46;95527.06;;;13.97;88.20
29045;BME280;16133;49.486;12.176;2023-03-14T10:09:30;95529.63;;;14.30;85.54
29045;BME280;16133;49.486;12.176;2023-03-14T10:11:57;95532.16;;;14.20;83.08
29045;BME280;16133;49.486;12.176;2023-03-14T10:14:33;95528.97;;;13.79;83.23
29045;BME280;16133;49.486;12.176;2023-03-14T10:17:11;95518.00;;;13.59;84.36
29045;BME280;16133;49.486;12.176;2023-03-14T10:19:50;95519.81;;;13.37;84.40
29045;BME280;16133;49.486;12.176;2023-03-14T10:22:16;95512.66;;;13.09;85.55
29045;BME280;16133;49.486;12.176;2023-03-14T10:24:46;95506.13;;;12.83;86.80
29045;BME280;16133;49.486;12.176;2023-03-14T10:27:27;95501.59;;;12.84;89.15
29045;BME280;16133;49.486;12.176;2023-03-14T10:30:03;95501.66;;;12.89;88.67
29045;BME280;16133;49.486;12.176;2023-03-14T10:32:35;95507.38;;;12.81;87.23
29045;BME280;16133;49.486;12.176;2023-03-14T10:35:18;95495.84;;;12.75;87.00
29045;BME280;16133;49.486;12.176;2023-03-14T10:37:51;95508.69;;;12.78;86.91
29045;BME280;16133;49.486;12.176;2023-03-14T10:40:19;95508.13;;;12.93;87.42
29045;BME280;16133;49.486;12.176;2023-03-14T10:42:45;95510.06;;;12.98;85.13
29045;BME280;16133;49.486;12.176;2023-03-14T10:45:39;95515.81;;;13.06;83.37
29045;BME280;16133;49.486;12.176;2023-03-14T10:53:17;95512.69;;;13.98;77.88
29045;BME280;16133;49.486;12.176;2023-03-14T10:55:44;95518.94;;;14.08;77.17
29045;BME280;16133;49.486;12.176;2023-03-14T10:58:28;95522.22;;;13.94;74.55
29045;BME280;16133;49.486;12.176;2023-03-14T11:01:07;95518.97;;;13.70;75.96
29045;BME280;16133;49.486;12.176;2023-03-14T11:03:36;95519.56;;;13.55;76.10
29045;BME280;16133;49.486;12.176;2023-03-14T11:06:09;95521.84;;;13.30;75.75
29045;BME280;16133;49.486;12.176;2023-03-14T11:08:46;95515.38;;;13.26;77.48
29045;BME280;16133;49.486;12.176;2023-03-14T11:17:34;95515.94;;;13.00;78.26
29045;BME280;16133;49.486;12.176;2023-03-14T11:25:16;95513.19;;;12.21;79.48
29045;BME280;16133;49.486;12.176;2023-03-14T11:28:28;95516.69;;;12.10;81.15
29045;BME280;16133;49.486;12.176;2023-03-14T11:31:04;95505.25;;;12.10;82.81
29045;BME280;16133;49.486;12.176;2023-03-14T11:36:13;95484.16;;;12.76;82.62
29045;BME280;16133;49.486;12.176;2023-03-14T11:38:47;95481.13;;;13.34;80.76
29045;BME280;16133;49.486;12.176;2023-03-14T11:41:17;95477.84;;;13.82;76.69
29045;BME280;16133;49.486;12.176;2023-03-14T11:43:48;95482.84;;;14.22;76.70
29045;BME280;16133;49.486;12.176;2023-03-14T11:46:44;95480.31;;;14.54;72.92
29045;BME280;16133;49.486;12.176;2023-03-14T11:49:58;95476.44;;;14.67;70.60
29045;BME280;16133;49.486;12.176;2023-03-14T11:52:37;95458.09;;;15.07;71.22
29045;BME280;16133;49.486;12.176;2023-03-14T11:55:31;95442.56;;;15.36;69.51
29045;BME280;16133;49.486;12.176;2023-03-14T11:58:02;95445.38;;;15.56;67.19
29045;BME280;16133;49.486;12.176;2023-03-14T12:00:29;95437.16;;;15.68;67.55
29045;BME280;16133;49.486;12.176;2023-03-14T12:03:20;95441.81;;;15.83;67.33
29045;BME280;16133;49.486;12.176;2023-03-14T12:06:09;95437.53;;;15.92;66.45
29045;BME280;16133;49.486;12.176;2023-03-14T12:08:46;95432.16;;;15.82;67.21
29045;BME280;16133;49.486;12.176;2023-03-14T12:11:14;95431.19;;;15.51;67.67
29045;BME280;16133;49.486;12.176;2023-03-14T12:13:46;95432.75;;;15.10;70.22
29045;BME280;16133;49.486;12.176;2023-03-14T12:16:26;95434.25;;;14.69;73.28
29045;BME280;16133;49.486;12.176;2023-03-14T12:18:52;95443.50;;;14.56;76.27
29045;BME280;16133;49.486;12.176;2023-03-14T12:21:19;95448.06;;;14.61;77.49
29045;BME280;16133;49.486;12.176;2023-03-14T12:23:49;95435.09;;;14.43;75.98
29045;BME280;16133;49.486;12.176;2023-03-14T12:26:21;95429.09;;;14.09;78.68
29045;BME280;16133;49.486;12.176;2023-03-14T12:42:10;95441.25;;;14.00;78.06
29045;BME280;16133;49.486;12.176;2023-03-14T12:49:44;95433.41;;;14.15;80.11
29045;BME280;16133;49.486;12.176;2023-03-14T12:52:19;95437.81;;;14.26;79.36
29045;BME280;16133;49.486;12.176;2023-03-14T12:54:57;95440.59;;;14.14;79.90
29045;BME280;16133;49.486;12.176;2023-03-14T12:57:33;95445.41;;;13.91;81.47
29045;BME280;16133;49.486;12.176;2023-03-14T13:00:22;95448.66;;;13.54;84.60
29045;BME280;16133;49.486;12.176;2023-03-14T13:02:49;95461.94;;;13.16;88.17
29045;BME280;16133;49.486;12.176;2023-03-14T13:10:27;95442.69;;;12.19;97.84
29045;BME280;16133;49.486;12.176;2023-03-14T13:13:20;95444.69;;;12.00;100.00
29045;BME280;16133;49.486;12.176;2023-03-14T13:15:47;95432.88;;;12.08;100.00
29045;BME280;16133;49.486;12.176;2023-03-14T13:21:29;95429.94;;;12.49;100.00
29045;BME280;16133;49.486;12.176;2023-03-14T13:23:33;95438.03;;;12.71;100.00
29045;BME280;16133;49.486;12.176;2023-03-14T13:26:00;95435.63;;;12.86;100.00
29045;BME280;16133;49.486;12.176;2023-03-14T13:28:26;95431.19;;;12.91;100.00
29045;BME280;16133;49.486;12.176;2023-03-14T13:31:01;95433.69;;;12.81;100.00
29045;BME280;16133;49.486;12.176;2023-03-14T13:33:26;95429.41;;;12.64;100.00
29045;BME280;16133;49.486;12.176;2023-03-14T13:35:57;95428.56;;;12.46;100.00
29045;BME280;16133;49.486;12.176;2023-03-14T13:38:26;95418.78;;;12.35;100.00
29045;BME280;16133;49.486;12.176;2023-03-14T13:40:57;95417.09;;;12.29;100.00
29045;BME280;16133;49.486;12.176;2023-03-14T13:43:39;95415.31;;;12.35;100.00
29045;BME280;16133;49.486;12.176;2023-03-14T13:46:14;95419.38;;;12.37;100.00
29045;BME280;16133;49.486;12.176;2023-03-14T13:48:45;95424.38;;;12.34;100.00